Weather at Anderson Airport

Public forecast

Using degrees Fahrenheit for public forecast. Weather courtesy of forecast.io.

Closest aviation weather report (METAR) to Anderson Airport

Closest report is Roben Hood Airport, 17.8 nm (33.0 km) N. Retrieved 2020/10/01 03:35 UTC (0 seconds ago):

KRQB 010335Z AUTO 00000KT 10SM SCT050 SCT065 08/07 A2975 RMK AO2 T00800074

Closest aviation forecast (TAF) to Anderson Airport

Closest forecast is Gerald R. Ford International Airport, 33.0 nm (61.1 km) S. Retrieved 2020-10-01 00:36 UTC (3 hours ago):

TAF KGRR 302335Z 0100/0124 29012G18KT P6SM VCSH BKN035 FM010300 26008KT P6SM BKN050 FM011200 26007KT P6SM -SHRA BKN025 FM011400 27007KT 4SM -SHRA BR OVC015 FM011900 29011KT P6SM VCSH BKN025